createdAt,value
2022-12-18T00:02:14.094Z,39.50
2022-12-18T00:04:40.753Z,32.90
2022-12-18T00:07:07.493Z,33.20
2022-12-18T00:09:39.603Z,33.97
2022-12-18T00:14:45.370Z,35.78
2022-12-18T00:17:12.193Z,33.28
2022-12-18T00:19:38.845Z,39.17
2022-12-18T00:22:06.941Z,31.67
2022-12-18T00:24:33.605Z,39.05
2022-12-18T00:27:00.218Z,31.63
2022-12-18T00:29:27.149Z,33.22
2022-12-18T05:31:29.172Z,392.63
2022-12-18T05:33:56.114Z,387.08
2022-12-18T05:36:22.749Z,387.38
2022-12-18T05:38:49.941Z,393.47
2022-12-18T05:41:16.776Z,384.50
2022-12-18T05:43:44.287Z,349.20
2022-12-18T05:46:18.431Z,316.55
2022-12-18T05:48:46.341Z,238.57
2022-12-18T05:51:16.082Z,198.98
2022-12-18T05:53:44.040Z,172.18
2022-12-18T05:56:18.855Z,158.90
2022-12-18T05:58:45.654Z,78.93
2022-12-18T06:06:21.418Z,386.20
2022-12-18T06:08:48.599Z,190.70
2022-12-18T06:11:18.802Z,35.42
2022-12-18T06:21:05.915Z,415.40
2022-12-18T06:25:59.113Z,414.65
2022-12-18T06:33:18.964Z,439.40
2022-12-18T06:35:45.654Z,436.50
2022-12-18T06:38:12.313Z,432.50
2022-12-18T06:40:40.145Z,427.70
2022-12-18T06:43:07.314Z,429.60
2022-12-18T06:45:34.187Z,412.33
2022-12-18T06:48:01.311Z,388.40
2022-12-18T06:50:28.093Z,433.60
2022-12-18T06:52:54.675Z,433.40
2022-12-18T06:55:21.338Z,423.27
2022-12-18T06:57:47.977Z,415.65
2022-12-18T09:08:27.928Z,488.95
2022-12-18T10:36:14.147Z,497.70
2022-12-18T12:03:56.522Z,445.95
2022-12-18T12:06:39.651Z,453.35
2022-12-18T12:45:49.959Z,494.85
2022-12-18T12:50:53.422Z,518.90
2022-12-18T12:55:55.518Z,503.90
2022-12-18T13:01:19.927Z,492.98
2022-12-18T13:09:12.917Z,478.80
2022-12-18T13:12:06.364Z,468.00
2022-12-18T13:14:40.860Z,496.20
2022-12-18T13:17:22.718Z,482.70
2022-12-18T13:20:10.927Z,494.10
2022-12-18T13:25:28.665Z,507.00
2022-12-18T13:33:16.292Z,512.30
2022-12-18T13:43:58.153Z,503.00
2022-12-18T13:59:34.717Z,497.10
2022-12-18T14:09:31.943Z,464.20
2022-12-18T14:27:26.403Z,484.20
2022-12-18T14:32:21.435Z,509.70
2022-12-18T15:02:56.602Z,479.40
2022-12-18T15:12:51.006Z,468.30
2022-12-18T15:15:38.594Z,499.40
2022-12-18T15:18:12.610Z,483.95
2022-12-18T15:31:22.226Z,501.60
2022-12-18T15:33:54.958Z,499.70
2022-12-18T15:36:26.702Z,494.27
2022-12-18T15:38:56.171Z,513.40
2022-12-18T15:41:36.501Z,510.25
2022-12-18T15:46:31.744Z,506.90
2022-12-18T15:54:01.644Z,511.80
2022-12-18T15:59:16.145Z,517.10
2022-12-18T16:04:13.927Z,508.13
2022-12-18T16:11:54.127Z,492.20
2022-12-18T16:14:27.490Z,512.10
2022-12-18T16:26:46.673Z,476.30
2022-12-18T16:31:39.853Z,516.37
2022-12-18T16:44:18.798Z,511.40
2022-12-18T16:46:49.002Z,498.03
2022-12-18T16:49:17.971Z,504.45
2022-12-18T16:51:46.522Z,491.35
2022-12-18T16:54:18.614Z,512.60
2022-12-18T16:56:47.784Z,504.48
2022-12-18T17:01:41.966Z,504.80
2022-12-18T17:04:09.519Z,516.80
2022-12-18T17:06:41.020Z,498.15
2022-12-18T17:09:12.145Z,525.80
2022-12-18T17:11:38.838Z,520.42
2022-12-18T17:14:15.964Z,519.05
2022-12-18T17:16:42.950Z,515.70
2022-12-18T17:19:16.621Z,520.70
2022-12-18T17:21:50.223Z,512.85
2022-12-18T17:26:45.429Z,497.73
2022-12-18T17:29:19.927Z,519.75
2022-12-18T17:31:47.890Z,505.00
2022-12-18T17:34:15.515Z,453.58
2022-12-18T17:36:42.344Z,493.77
2022-12-18T17:39:11.692Z,454.97
2022-12-18T17:41:38.348Z,499.70
2022-12-18T17:44:06.099Z,490.33
2022-12-18T17:46:34.097Z,496.30
2022-12-18T17:49:02.634Z,481.60
2022-12-18T17:51:30.175Z,481.85
2022-12-18T17:53:56.831Z,494.20
2022-12-18T17:56:24.650Z,494.10
2022-12-18T17:58:52.237Z,507.60
2022-12-18T18:01:25.007Z,508.20
2022-12-18T18:03:54.131Z,481.77
2022-12-18T18:06:21.852Z,504.20
2022-12-18T18:08:48.993Z,491.43
2022-12-18T18:11:36.655Z,479.70
2022-12-18T18:16:44.620Z,497.33
2022-12-18T18:19:14.993Z,493.33
2022-12-18T18:21:44.597Z,502.90
2022-12-18T18:24:14.219Z,484.95
2022-12-18T18:26:44.233Z,500.00
2022-12-18T18:29:17.418Z,500.20
2022-12-18T18:31:44.358Z,502.80
2022-12-18T18:34:20.135Z,501.60
2022-12-18T18:39:14.010Z,493.80
2022-12-18T18:41:41.340Z,490.60
2022-12-18T18:49:08.150Z,498.30
2022-12-18T18:54:02.586Z,482.67
2022-12-18T19:01:43.128Z,505.85
2022-12-18T19:04:10.246Z,506.90
2022-12-18T19:11:50.356Z,497.42
2022-12-18T19:14:17.729Z,490.48
2022-12-18T19:16:45.434Z,496.33
2022-12-18T19:19:13.111Z,489.67
2022-12-18T19:26:33.373Z,502.90
2022-12-18T19:29:08.425Z,512.40
2022-12-18T19:36:36.368Z,497.50
2022-12-18T19:56:29.808Z,500.50
2022-12-18T19:58:56.673Z,499.10
2022-12-18T20:01:25.312Z,494.08
2022-12-18T20:08:52.956Z,506.90
2022-12-18T20:11:26.175Z,493.90
2022-12-18T20:18:46.375Z,513.00
2022-12-18T20:21:14.215Z,483.42
2022-12-18T20:26:08.826Z,507.20
2022-12-18T20:28:35.821Z,505.70
2022-12-18T20:40:58.557Z,513.90
2022-12-18T20:43:25.219Z,510.90
2022-12-18T20:45:51.845Z,500.00
2022-12-18T20:48:23.574Z,519.85
2022-12-18T20:51:05.667Z,517.30
2022-12-18T20:53:34.193Z,528.07
2022-12-18T20:56:02.140Z,502.38
2022-12-18T21:01:12.796Z,532.50
2022-12-18T21:03:41.302Z,520.20
2022-12-18T21:06:09.315Z,484.75
2022-12-18T21:08:36.697Z,518.30
2022-12-18T21:11:40.209Z,529.20
2022-12-18T21:14:21.539Z,491.83
2022-12-18T21:16:48.861Z,491.65
2022-12-18T21:19:18.639Z,521.10
2022-12-18T21:21:45.713Z,493.20
2022-12-18T21:24:12.958Z,501.55
2022-12-18T21:26:45.244Z,516.47
2022-12-18T21:29:15.303Z,508.98
2022-12-18T21:36:40.618Z,521.20
2022-12-18T21:39:07.250Z,523.55
2022-12-18T21:44:22.398Z,503.02
2022-12-18T21:46:55.675Z,493.27
2022-12-18T21:49:25.225Z,514.60
2022-12-18T21:51:54.388Z,505.25
2022-12-18T21:54:21.334Z,501.45
2022-12-18T21:57:02.431Z,521.65
2022-12-18T21:59:40.197Z,515.53
2022-12-18T22:02:19.867Z,512.00
2022-12-18T22:04:47.318Z,502.00
2022-12-18T22:07:16.904Z,499.73
2022-12-18T22:09:43.725Z,511.08
2022-12-18T22:12:12.751Z,510.40
2022-12-18T22:14:39.372Z,518.47
2022-12-18T22:17:06.036Z,518.40
2022-12-18T22:19:38.114Z,527.05
2022-12-18T22:22:09.391Z,526.10
2022-12-18T22:27:02.669Z,529.90
2022-12-18T22:35:03.233Z,528.70
2022-12-18T22:37:32.949Z,521.90
2022-12-18T22:42:30.464Z,527.80
2022-12-18T22:44:57.090Z,520.60
2022-12-18T22:47:29.201Z,509.60
2022-12-18T22:49:56.286Z,503.55
2022-12-18T22:52:24.923Z,526.90
2022-12-18T22:54:53.336Z,529.60
2022-12-18T22:57:21.508Z,524.40
2022-12-18T22:59:48.154Z,522.40
2022-12-18T23:02:14.976Z,529.45
2022-12-18T23:07:08.355Z,523.83
2022-12-18T23:09:35.190Z,523.70
2022-12-18T23:12:02.744Z,515.40
2022-12-18T23:14:30.374Z,522.50
2022-12-18T23:16:57.206Z,516.83
2022-12-18T23:19:24.142Z,514.70
2022-12-18T23:24:18.161Z,522.10
2022-12-18T23:26:44.788Z,527.60
